Time;durP1;ratioP1;P1;durP2;ratioP2;P2;SDS_P1;SDS_P2;PMS_P1;PMS_P2;Temp;Humidity;BMP_temperature;BMP_pressure;BME280_temperature;BME280_humidity;BME280_pressure;Samples;Min_cycle;Max_cycle;Signal;HPM_P1;HPM_P2
2023/11/02 00:01:09;;;;;;;3.70;2.90;;;12.50;99.90;;;;;;5118647;28;20465;-61
2023/11/02 00:03:37;;;;;;;2.57;2.10;;;12.50;99.90;;;;;;5105847;28;20487;-60
2023/11/02 00:06:34;;;;;;;3.97;2.70;;;12.50;99.90;;;;;;5096930;28;20466;-59
2023/11/02 00:09:37;;;;;;;4.07;2.70;;;12.50;99.90;;;;;;5100436;28;20655;-58
2023/11/02 00:12:07;;;;;;;5.03;3.50;;;12.50;99.90;;;;;;5103320;28;20441;-59
2023/11/02 00:14:46;;;;;;;2.63;2.43;;;12.40;99.90;;;;;;5116019;28;20466;-60
2023/11/02 00:17:53;;;;;;;8.13;2.90;;;12.50;99.90;;;;;;5097021;28;20467;-60
2023/11/02 00:20:34;;;;;;;4.90;2.70;;;12.40;99.90;;;;;;5120575;28;20448;-57
2023/11/02 00:23:03;;;;;;;5.63;2.70;;;12.40;99.90;;;;;;5113643;28;20448;-60
2023/11/02 00:25:49;;;;;;;4.43;2.77;;;12.40;99.90;;;;;;5097048;28;20926;-60
2023/11/02 00:28:21;;;;;;;9.93;3.13;;;12.40;99.90;;;;;;5104306;28;20410;-57
2023/11/02 00:30:50;;;;;;;9.60;3.40;;;12.40;99.90;;;;;;5120498;28;20410;-53
2023/11/02 00:33:18;;;;;;;6.37;3.00;;;12.40;99.90;;;;;;5101577;28;20430;-59
2023/11/02 00:35:51;;;;;;;3.23;2.20;;;12.40;99.90;;;;;;5096329;28;20565;-59
2023/11/02 00:38:26;;;;;;;5.40;2.50;;;12.40;99.90;;;;;;5102596;28;20499;-59
2023/11/02 00:40:54;;;;;;;5.50;2.80;;;12.40;99.90;;;;;;5118585;28;20849;-61
2023/11/02 00:43:21;;;;;;;3.97;2.47;;;12.30;99.90;;;;;;5114971;28;20453;-60
2023/11/02 00:45:49;;;;;;;4.17;2.60;;;12.30;99.90;;;;;;5114857;28;20446;-59
2023/11/02 00:48:21;;;;;;;2.73;1.97;;;12.30;99.90;;;;;;5100143;28;20526;-59
2023/11/02 00:51:12;;;;;;;6.77;2.90;;;12.30;99.90;;;;;;5098857;28;20817;-59
2023/11/02 00:53:43;;;;;;;3.63;2.00;;;12.30;99.90;;;;;;5104853;28;20470;-55
2023/11/02 00:56:10;;;;;;;3.93;2.63;;;12.20;99.90;;;;;;5110207;28;20499;-61
2023/11/02 00:58:46;;;;;;;6.00;2.40;;;12.20;99.90;;;;;;5098432;28;21014;-58
2023/11/02 01:01:14;;;;;;;3.90;2.43;;;12.10;99.90;;;;;;5119781;28;20413;-59
2023/11/02 01:03:46;;;;;;;3.33;2.37;;;12.10;99.90;;;;;;5100558;28;20462;-60
2023/11/02 01:06:19;;;;;;;2.50;2.10;;;12.10;99.90;;;;;;5110265;28;20406;-51
2023/11/02 01:08:52;;;;;;;1.90;1.80;;;12.10;99.90;;;;;;5115447;28;20453;-60
2023/11/02 01:11:20;;;;;;;2.97;2.20;;;12.10;99.90;;;;;;5086297;28;20501;-59
2023/11/02 01:13:47;;;;;;;6.43;2.67;;;12.10;99.90;;;;;;5095680;28;20438;-52
2023/11/02 01:16:14;;;;;;;4.63;2.80;;;12.10;99.90;;;;;;5085884;28;21017;-60
2023/11/02 01:18:45;;;;;;;4.77;3.13;;;12.10;99.90;;;;;;5075625;28;20533;-59
2023/11/02 01:21:14;;;;;;;4.63;2.60;;;12.10;99.90;;;;;;5097027;28;20431;-59
2023/11/02 01:23:42;;;;;;;4.13;2.43;;;12.10;99.90;;;;;;5108984;28;20464;-59
2023/11/02 01:26:53;;;;;;;5.30;2.30;;;12.10;99.90;;;;;;5096269;28;20453;-59
2023/11/02 01:29:21;;;;;;;11.60;2.20;;;12.10;99.90;;;;;;5103950;28;20426;-60
2023/11/02 01:31:49;;;;;;;2.93;2.10;;;12.10;99.90;;;;;;5119023;28;20451;-56
2023/11/02 01:34:20;;;;;;;2.43;1.90;;;12.10;99.90;;;;;;5113518;28;20461;-60
2023/11/02 01:36:49;;;;;;;5.83;2.27;;;12.10;99.90;;;;;;5116231;28;20481;-57
2023/11/02 02:22:09;;;;;;;5.10;2.43;;;12.10;99.90;;;;;;5114503;28;20372;-69
2023/11/02 02:25:12;;;;;;;2.03;1.83;;;12.10;99.90;;;;;;5114852;28;20537;-70
2023/11/02 02:28:14;;;;;;;4.93;1.93;;;12.10;99.90;;;;;;5114661;28;20441;-70
2023/11/02 02:31:08;;;;;;;6.43;2.70;;;12.10;99.90;;;;;;5113660;28;20471;-70
2023/11/02 02:34:15;;;;;;;2.10;1.60;;;12.10;99.90;;;;;;5113699;28;20515;-70
2023/11/02 02:37:02;;;;;;;3.47;2.23;;;12.10;99.90;;;;;;5079708;28;20534;-69
2023/11/02 02:39:37;;;;;;;4.50;2.30;;;12.20;99.90;;;;;;5114074;28;20586;-70
2023/11/02 02:42:07;;;;;;;6.20;2.20;;;12.20;99.90;;;;;;5118479;28;20477;-69
2023/11/02 02:44:44;;;;;;;4.13;2.23;;;12.20;99.90;;;;;;5118758;28;20536;-70
2023/11/02 02:47:23;;;;;;;3.30;2.47;;;12.20;99.90;;;;;;5119521;28;20456;-69
2023/11/02 02:49:52;;;;;;;2.70;1.83;;;12.20;99.90;;;;;;5120071;28;21041;-69
2023/11/02 02:52:23;;;;;;;4.60;2.07;;;12.20;99.90;;;;;;5120199;28;20420;-70
2023/11/02 02:54:54;;;;;;;3.63;1.77;;;12.10;99.90;;;;;;5101160;28;20444;-69
2023/11/02 02:57:24;;;;;;;2.57;1.80;;;12.10;99.90;;;;;;5119997;28;20445;-71
2023/11/02 02:59:55;;;;;;;4.63;2.60;;;12.10;99.90;;;;;;5119654;28;20437;-70
2023/11/02 03:02:27;;;;;;;2.20;1.90;;;12.10;99.90;;;;;;5100766;28;20454;-70
2023/11/02 03:04:56;;;;;;;2.60;2.40;;;12.10;99.90;;;;;;5118796;28;20464;-70
2023/11/02 03:07:29;;;;;;;4.50;2.37;;;12.00;99.90;;;;;;5118901;28;20413;-70
2023/11/02 03:10:15;;;;;;;3.60;2.30;;;12.00;99.90;;;;;;5120800;28;20487;-70
2023/11/02 03:13:21;;;;;;;9.50;2.47;;;12.00;99.90;;;;;;5121865;28;20505;-71
2023/11/02 03:15:53;;;;;;;5.07;2.50;;;11.90;99.90;;;;;;5124624;28;20576;-71
2023/11/02 03:18:26;;;;;;;6.80;2.47;;;11.80;99.90;;;;;;5124730;28;20440;-70
2023/11/02 03:21:00;;;;;;;3.73;2.07;;;11.80;99.90;;;;;;5121103;28;20447;-70
2023/11/02 03:23:43;;;;;;;2.20;2.00;;;11.70;99.90;;;;;;5119632;28;20896;-71
2023/11/02 03:26:24;;;;;;;12.27;2.17;;;11.60;99.90;;;;;;5123221;28;20471;-70
2023/11/02 03:29:05;;;;;;;2.10;1.63;;;11.60;99.90;;;;;;5105867;28;20495;-70
2023/11/02 03:31:42;;;;;;;4.43;1.73;;;11.60;99.90;;;;;;5124134;28;20440;-70
2023/11/02 03:34:15;;;;;;;3.57;1.73;;;11.50;99.90;;;;;;5123927;28;20429;-70
2023/11/02 03:37:08;;;;;;;3.83;2.00;;;11.50;99.90;;;;;;5124226;28;20495;-70
2023/11/02 03:40:34;;;;;;;4.20;2.37;;;11.40;99.90;;;;;;5118750;28;20964;-70
2023/11/02 03:43:06;;;;;;;4.50;2.10;;;11.40;99.90;;;;;;5118249;28;20524;-69
2023/11/02 03:46:07;;;;;;;3.53;2.03;;;11.40;99.90;;;;;;5117581;28;20503;-69
2023/11/02 03:48:52;;;;;;;5.47;2.33;;;11.30;99.90;;;;;;5118144;28;20457;-70
2023/11/02 03:51:38;;;;;;;4.80;2.00;;;11.30;99.90;;;;;;5116252;28;20543;-69
2023/11/02 03:54:39;;;;;;;6.10;2.30;;;11.30;99.90;;;;;;5116993;28;20494;-70
2023/11/02 03:57:35;;;;;;;4.70;2.07;;;11.30;99.90;;;;;;5117249;28;20496;-71
2023/11/02 04:00:09;;;;;;;3.73;1.37;;;11.30;99.90;;;;;;5118160;28;20935;-71
2023/11/02 04:02:46;;;;;;;2.80;1.77;;;11.30;99.90;;;;;;5117044;28;20428;-72
2023/11/02 04:05:21;;;;;;;4.40;2.00;;;11.30;99.90;;;;;;5087692;28;20476;-70
2023/11/02 04:07:59;;;;;;;5.73;2.20;;;11.30;99.90;;;;;;5116754;28;20960;-70
2023/11/02 04:10:27;;;;;;;2.80;1.90;;;11.30;99.90;;;;;;5110732;28;20452;-70
2023/11/02 04:13:09;;;;;;;1.60;1.43;;;11.30;99.90;;;;;;5116552;28;20455;-70
2023/11/02 04:15:36;;;;;;;3.80;1.70;;;11.20;99.90;;;;;;5097040;28;20784;-70
2023/11/02 04:18:04;;;;;;;8.27;2.10;;;11.20;99.90;;;;;;5096209;28;20453;-69
2023/11/02 04:20:31;;;;;;;2.97;1.50;;;11.20;99.90;;;;;;5096680;28;20422;-70
2023/11/02 04:22:59;;;;;;;9.93;2.80;;;11.20;99.90;;;;;;5095939;28;20425;-69
2023/11/02 04:25:26;;;;;;;4.90;2.43;;;11.20;99.90;;;;;;5096153;28;20944;-70
2023/11/02 04:27:54;;;;;;;2.43;1.87;;;11.20;99.90;;;;;;5095949;28;20515;-69
2023/11/02 04:30:24;;;;;;;2.63;1.63;;;11.20;99.90;;;;;;5095750;28;20418;-69
2023/11/02 04:32:51;;;;;;;3.03;2.00;;;11.20;99.90;;;;;;5095491;28;20422;-70
2023/11/02 04:35:26;;;;;;;2.90;2.17;;;11.10;99.90;;;;;;5095353;28;20473;-69
2023/11/02 04:38:06;;;;;;;3.30;1.77;;;11.10;99.90;;;;;;5095775;28;20836;-70
2023/11/02 04:40:33;;;;;;;5.43;2.33;;;11.00;99.90;;;;;;5096275;28;20418;-70
2023/11/02 04:43:00;;;;;;;2.67;2.03;;;11.00;99.90;;;;;;5096044;28;20419;-70
2023/11/02 04:45:39;;;;;;;4.23;1.80;;;11.00;99.90;;;;;;5096593;28;20901;-70
2023/11/02 04:48:09;;;;;;;3.77;2.20;;;11.00;99.90;;;;;;5097370;28;20484;-69
2023/11/02 04:50:36;;;;;;;3.33;2.10;;;10.90;99.90;;;;;;5097357;28;20910;-69
2023/11/02 04:53:31;;;;;;;2.87;1.73;;;11.00;99.90;;;;;;5096290;28;20521;-70
2023/11/02 04:55:58;;;;;;;2.63;1.40;;;10.90;99.90;;;;;;5097325;28;20466;-70
2023/11/02 04:58:25;;;;;;;3.13;2.20;;;11.00;99.90;;;;;;5109147;28;20523;-70
2023/11/02 05:01:09;;;;;;;2.27;2.07;;;10.90;99.90;;;;;;5112440;28;20434;-71
2023/11/02 05:03:36;;;;;;;4.70;2.27;;;10.90;99.90;;;;;;5112586;28;20420;-70
2023/11/02 05:06:03;;;;;;;3.03;1.90;;;10.90;99.90;;;;;;5104001;28;20425;-70
2023/11/02 05:08:38;;;;;;;6.40;2.83;;;10.90;99.90;;;;;;5078568;28;20497;-70
2023/11/02 05:11:19;;;;;;;6.70;2.20;;;10.90;99.90;;;;;;5095977;28;20512;-71
2023/11/02 05:13:46;;;;;;;2.23;1.77;;;10.80;99.90;;;;;;5096447;28;20481;-70
2023/11/02 05:16:15;;;;;;;4.23;2.07;;;10.80;99.90;;;;;;5096097;28;20461;-70
2023/11/02 05:18:53;;;;;;;3.83;2.00;;;10.80;99.90;;;;;;5112202;28;20875;-70
2023/11/02 05:21:20;;;;;;;4.03;2.10;;;10.80;99.90;;;;;;5116561;28;20477;-70
2023/11/02 05:23:48;;;;;;;7.87;2.30;;;10.80;99.90;;;;;;5115874;28;20417;-70
2023/11/02 05:26:17;;;;;;;2.83;1.80;;;10.80;99.90;;;;;;5115940;28;20417;-69
2023/11/02 05:28:45;;;;;;;2.80;2.00;;;10.70;99.90;;;;;;5115786;28;20525;-70
2023/11/02 05:31:12;;;;;;;3.90;2.13;;;10.70;99.90;;;;;;5115460;28;20431;-70
2023/11/02 05:33:47;;;;;;;4.70;2.53;;;10.70;99.90;;;;;;5114954;28;20786;-69
2023/11/02 05:36:15;;;;;;;5.90;1.77;;;10.70;99.90;;;;;;5114889;28;20460;-70
2023/11/02 05:38:42;;;;;;;8.60;2.70;;;10.70;99.90;;;;;;5114932;28;20982;-69
2023/11/02 05:41:30;;;;;;;6.10;2.40;;;10.70;99.90;;;;;;5115926;28;20425;-69
2023/11/02 05:43:57;;;;;;;2.93;2.17;;;10.70;99.90;;;;;;5116041;28;20425;-71
2023/11/02 05:46:24;;;;;;;3.93;1.87;;;10.70;99.90;;;;;;5115930;28;20428;-70
2023/11/02 05:49:18;;;;;;;9.37;4.37;;;10.70;99.90;;;;;;5115359;28;20514;-70
2023/11/02 05:52:05;;;;;;;4.07;1.87;;;10.70;99.90;;;;;;5114829;28;20548;-70
2023/11/02 05:54:32;;;;;;;3.13;2.03;;;10.70;99.90;;;;;;5115049;28;20789;-69
2023/11/02 05:56:59;;;;;;;3.10;2.27;;;10.70;99.90;;;;;;5114969;28;20863;-70
2023/11/02 05:59:32;;;;;;;5.53;2.40;;;10.70;99.90;;;;;;5115680;28;20506;-71
2023/11/02 06:02:00;;;;;;;5.00;3.43;;;10.70;99.90;;;;;;5116051;28;20483;-70
2023/11/02 06:04:29;;;;;;;3.23;2.90;;;10.70;99.90;;;;;;5114357;28;20428;-70
2023/11/02 06:06:57;;;;;;;6.77;2.93;;;10.60;99.90;;;;;;5114700;28;20447;-70
2023/11/02 06:09:24;;;;;;;2.80;2.07;;;10.70;99.90;;;;;;5115428;28;20499;-70
2023/11/02 06:11:51;;;;;;;6.17;3.87;;;10.70;99.90;;;;;;5115575;28;20447;-69
2023/11/02 06:14:18;;;;;;;4.10;2.47;;;10.70;99.90;;;;;;5115945;28;20824;-70
2023/11/02 06:16:47;;;;;;;4.27;2.77;;;10.80;99.90;;;;;;5116437;28;20460;-70
2023/11/02 06:19:16;;;;;;;4.13;3.03;;;10.80;99.90;;;;;;5115544;28;20465;-70
2023/11/02 06:21:44;;;;;;;4.67;3.13;;;10.90;99.90;;;;;;5115666;28;20521;-70
2023/11/02 06:24:11;;;;;;;4.50;3.03;;;10.80;99.90;;;;;;5115204;28;20437;-70
2023/11/02 06:26:50;;;;;;;5.57;2.30;;;10.80;99.90;;;;;;5116138;28;20417;-71
2023/11/02 06:29:17;;;;;;;3.40;2.67;;;10.80;99.90;;;;;;5114268;28;20493;-71
2023/11/02 06:31:44;;;;;;;4.73;2.43;;;10.80;99.90;;;;;;5114378;28;20417;-71
2023/11/02 06:34:11;;;;;;;5.23;1.93;;;10.80;99.90;;;;;;5114317;28;20482;-70
2023/11/02 06:36:38;;;;;;;6.33;3.23;;;10.90;99.90;;;;;;5115241;28;20464;-70
2023/11/02 06:39:08;;;;;;;3.30;2.50;;;10.90;99.90;;;;;;5117101;28;20456;-70
2023/11/02 06:41:58;;;;;;;4.00;2.70;;;10.90;99.90;;;;;;5098404;28;20496;-70
2023/11/02 06:44:25;;;;;;;5.43;2.40;;;10.80;99.90;;;;;;5097095;28;20465;-71
2023/11/02 06:46:54;;;;;;;9.00;2.80;;;10.90;99.90;;;;;;5095776;28;20480;-70
2023/11/02 06:49:21;;;;;;;3.93;2.33;;;10.80;99.90;;;;;;5114842;28;20503;-71
2023/11/02 06:51:55;;;;;;;12.80;2.50;;;10.90;99.90;;;;;;5135685;28;20424;-70
2023/11/02 06:54:25;;;;;;;3.10;2.13;;;10.90;99.90;;;;;;5136013;28;20432;-71
2023/11/02 06:56:51;;;;;;;3.53;2.40;;;10.90;99.90;;;;;;5137004;28;20471;-71
2023/11/02 06:59:24;;;;;;;5.10;2.20;;;10.90;99.90;;;;;;5137284;28;20978;-70
2023/11/02 07:01:58;;;;;;;7.83;3.10;;;10.90;99.90;;;;;;5122527;28;20952;-69
2023/11/02 07:04:25;;;;;;;3.30;2.73;;;10.90;99.90;;;;;;5097670;28;20422;-71
2023/11/02 07:06:52;;;;;;;3.53;2.17;;;10.90;99.90;;;;;;5095845;28;20461;-71
2023/11/02 07:09:41;;;;;;;7.20;2.30;;;11.00;99.90;;;;;;5097163;28;21013;-72
2023/11/02 07:12:12;;;;;;;3.90;2.90;;;11.00;99.90;;;;;;5095420;28;20829;-69
2023/11/02 07:15:13;;;;;;;7.50;2.43;;;11.00;99.90;;;;;;5104142;28;20555;-68
2023/11/02 07:17:41;;;;;;;6.20;3.00;;;11.10;99.90;;;;;;5110115;28;20944;-70
2023/11/02 07:20:09;;;;;;;4.20;2.53;;;11.20;99.90;;;;;;5109411;28;20453;-70
2023/11/02 07:22:38;;;;;;;7.70;2.93;;;11.30;99.90;;;;;;5092025;28;20920;-69
2023/11/02 07:25:09;;;;;;;6.83;2.93;;;11.30;99.90;;;;;;5092759;28;20491;-69
2023/11/02 07:27:37;;;;;;;15.33;2.40;;;11.30;99.90;;;;;;5096541;28;20426;-70
2023/11/02 07:30:28;;;;;;;14.23;3.37;;;11.40;99.90;;;;;;5096665;28;20788;-70
2023/11/02 07:33:03;;;;;;;3.90;2.63;;;11.60;99.90;;;;;;5097099;28;20461;-69
2023/11/02 07:35:30;;;;;;;10.97;2.67;;;11.60;99.90;;;;;;5096684;28;20924;-70
2023/11/02 07:37:57;;;;;;;4.07;2.70;;;11.70;99.90;;;;;;5108675;27;20485;-70
2023/11/02 07:40:26;;;;;;;4.40;3.00;;;11.60;99.90;;;;;;5097345;28;20870;-72
2023/11/02 07:42:54;;;;;;;3.40;2.30;;;11.70;99.90;;;;;;5078733;28;20990;-70
2023/11/02 07:45:21;;;;;;;5.00;3.20;;;11.70;99.90;;;;;;5114257;28;20964;-70
2023/11/02 07:47:55;;;;;;;4.50;2.70;;;11.70;99.90;;;;;;5117267;28;20464;-70
2023/11/02 07:50:22;;;;;;;6.97;3.10;;;11.70;99.90;;;;;;5117406;28;20823;-69
2023/11/02 07:53:01;;;;;;;5.87;3.13;;;11.80;99.90;;;;;;5117699;28;20429;-71
2023/11/02 07:55:31;;;;;;;3.97;2.83;;;11.80;99.90;;;;;;5134791;28;20448;-70
2023/11/02 07:58:15;;;;;;;6.10;3.20;;;11.80;99.90;;;;;;5132995;28;20489;-70
2023/11/02 08:00:43;;;;;;;9.73;3.07;;;11.90;99.90;;;;;;5131359;28;20854;-69
2023/11/02 08:03:49;;;;;;;6.63;4.13;;;11.90;99.90;;;;;;5121936;28;20903;-70
2023/11/02 08:06:16;;;;;;;4.77;3.10;;;11.90;99.90;;;;;;5117181;28;20461;-70
2023/11/02 08:08:53;;;;;;;6.40;2.80;;;12.00;99.90;;;;;;5114690;28;20898;-70
2023/11/02 08:11:44;;;;;;;5.47;3.00;;;12.10;99.90;;;;;;5116823;28;20464;-70
2023/11/02 08:14:12;;;;;;;11.53;3.30;;;12.10;99.90;;;;;;5116017;28;20456;-69
2023/11/02 08:16:39;;;;;;;5.60;3.13;;;12.20;99.90;;;;;;5116162;28;20421;-70
2023/11/02 08:19:06;;;;;;;3.13;2.33;;;12.30;99.90;;;;;;5116373;28;20461;-69
2023/11/02 08:21:35;;;;;;;6.47;3.80;;;12.30;99.90;;;;;;5116058;28;20449;-71
2023/11/02 08:24:03;;;;;;;6.90;2.37;;;12.40;99.90;;;;;;5115962;28;20413;-70
2023/11/02 08:26:38;;;;;;;12.63;3.60;;;12.40;99.90;;;;;;5116048;28;20425;-69
2023/11/02 08:29:09;;;;;;;6.23;3.00;;;12.50;99.90;;;;;;5116128;28;20539;-69
2023/11/02 08:31:36;;;;;;;3.40;2.40;;;12.60;99.90;;;;;;5096518;28;20998;-69
2023/11/02 08:34:27;;;;;;;6.07;3.60;;;12.70;99.90;;;;;;5095923;28;20803;-69
2023/11/02 08:36:55;;;;;;;6.90;4.37;;;12.90;99.90;;;;;;5096153;28;20430;-71
2023/11/02 08:39:22;;;;;;;9.30;3.57;;;12.90;99.90;;;;;;5095800;28;20474;-69
2023/11/02 08:42:08;;;;;;;6.70;3.07;;;13.00;99.90;;;;;;5095925;28;20459;-69
2023/11/02 08:44:56;;;;;;;12.47;3.20;;;13.00;99.90;;;;;;5094768;28;20466;-70
2023/11/02 08:47:25;;;;;;;8.80;2.67;;;13.00;99.90;;;;;;5095291;28;20422;-69
2023/11/02 08:49:53;;;;;;;9.20;2.43;;;13.10;99.90;;;;;;5095154;28;20513;-71
2023/11/02 08:52:36;;;;;;;10.50;2.20;;;13.00;99.90;;;;;;5106453;28;20464;-70
2023/11/02 08:55:05;;;;;;;4.33;2.27;;;13.00;99.90;;;;;;5115381;28;20420;-70
2023/11/02 08:57:32;;;;;;;6.43;2.53;;;13.00;99.90;;;;;;5115763;28;20866;-70
2023/11/02 09:00:19;;;;;;;5.43;2.77;;;12.90;99.90;;;;;;5115777;28;20786;-70
2023/11/02 09:02:46;;;;;;;7.90;3.40;;;13.00;99.90;;;;;;5116078;28;20507;-70
2023/11/02 09:05:14;;;;;;;8.73;2.43;;;13.00;99.90;;;;;;5099173;28;20426;-71
2023/11/02 09:07:44;;;;;;;5.53;2.43;;;13.00;99.90;;;;;;5095187;28;20406;-70
2023/11/02 09:10:12;;;;;;;2.77;2.10;;;13.00;99.90;;;;;;5095895;28;20448;-71
2023/11/02 09:12:39;;;;;;;7.83;2.47;;;13.00;99.90;;;;;;5094844;28;20476;-70
2023/11/02 09:15:20;;;;;;;5.97;2.40;;;13.10;99.90;;;;;;5095638;28;20445;-70
2023/11/02 09:18:17;;;;;;;6.40;2.73;;;13.10;99.90;;;;;;5095613;28;20477;-70
2023/11/02 09:20:45;;;;;;;8.40;2.70;;;13.20;99.90;;;;;;5095948;28;20426;-69
2023/11/02 09:23:12;;;;;;;4.33;2.77;;;13.30;99.90;;;;;;5095859;28;20421;-72
2023/11/02 09:29:01;;;;;;;7.57;2.90;;;13.30;99.90;;;;;;5094593;28;20486;-69
2023/11/02 09:31:51;;;;;;;6.70;3.20;;;13.30;99.90;;;;;;5094397;28;20443;-68
2023/11/02 09:34:19;;;;;;;13.30;2.57;;;13.40;99.90;;;;;;5093945;28;20430;-70
2023/11/02 09:36:46;;;;;;;8.40;2.40;;;13.50;99.90;;;;;;5094066;28;20425;-70
2023/11/02 09:39:16;;;;;;;5.60;2.63;;;13.60;99.90;;;;;;5093833;28;20488;-70
2023/11/02 09:41:45;;;;;;;6.90;2.70;;;13.70;99.90;;;;;;5094111;28;20502;-69
2023/11/02 09:44:16;;;;;;;9.00;2.87;;;13.80;99.90;;;;;;5093888;28;20478;-71
2023/11/02 09:46:53;;;;;;;11.90;2.80;;;13.90;99.90;;;;;;5094014;28;20450;-70
2023/11/02 09:49:39;;;;;;;3.10;2.37;;;14.00;99.90;;;;;;5093227;28;20515;-71
2023/11/02 09:52:08;;;;;;;2.57;1.90;;;14.40;99.90;;;;;;5094217;28;20790;-71
2023/11/02 09:54:36;;;;;;;2.87;1.80;;;14.80;99.90;;;;;;5093904;28;20421;-70
2023/11/02 09:57:06;;;;;;;4.00;2.47;;;15.00;99.90;;;;;;5094093;28;20433;-72
2023/11/02 09:59:39;;;;;;;4.83;2.30;;;15.20;99.90;;;;;;5093843;28;20462;-70
2023/11/02 10:02:19;;;;;;;4.47;2.00;;;15.30;99.90;;;;;;5094471;28;20476;-70
2023/11/02 10:04:47;;;;;;;3.67;3.37;;;15.50;99.90;;;;;;5093975;28;20417;-71
2023/11/02 10:07:23;;;;;;;8.60;2.20;;;15.60;99.90;;;;;;5076144;28;20449;-69
2023/11/02 10:09:51;;;;;;;5.53;2.43;;;15.60;99.90;;;;;;5094237;28;20463;-70
2023/11/02 10:12:57;;;;;;;7.43;2.17;;;15.50;99.90;;;;;;5095073;28;20417;-71
2023/11/02 10:15:26;;;;;;;3.00;2.20;;;15.30;99.90;;;;;;5076474;28;20446;-69
2023/11/02 10:17:55;;;;;;;12.87;2.53;;;15.20;99.90;;;;;;5093401;28;20485;-70
2023/11/02 10:20:30;;;;;;;5.43;2.53;;;15.20;99.90;;;;;;5096403;28;20783;-71
2023/11/02 10:23:03;;;;;;;5.63;2.70;;;15.20;99.90;;;;;;5096906;28;20449;-72
2023/11/02 10:25:31;;;;;;;9.80;2.40;;;15.00;99.90;;;;;;5111327;28;20428;-72
2023/11/02 10:31:27;;;;;;;3.23;1.90;;;14.90;99.90;;;;;;5116730;28;20419;-71
2023/11/02 10:34:12;;;;;;;3.73;2.10;;;14.70;99.90;;;;;;5106343;28;20426;-71
2023/11/02 10:36:42;;;;;;;3.73;2.20;;;14.60;99.90;;;;;;5095816;28;20477;-70
2023/11/02 10:39:24;;;;;;;5.90;3.27;;;14.50;99.90;;;;;;5101267;28;20538;-71
2023/11/02 10:41:56;;;;;;;3.00;1.93;;;14.50;99.90;;;;;;5104813;28;20429;-70
2023/11/02 10:44:44;;;;;;;7.43;2.90;;;14.50;99.90;;;;;;5069834;28;20444;-70
2023/11/02 10:47:13;;;;;;;3.00;2.07;;;14.50;99.90;;;;;;5096587;28;20524;-71
2023/11/02 10:49:45;;;;;;;7.30;2.47;;;14.30;99.90;;;;;;5096230;28;21046;-70
2023/11/02 10:52:40;;;;;;;8.67;2.97;;;14.30;99.90;;;;;;5105063;28;20467;-69
2023/11/02 10:55:16;;;;;;;4.50;2.23;;;14.20;99.90;;;;;;5127642;28;20484;-69
2023/11/02 10:57:44;;;;;;;4.20;2.37;;;14.20;99.90;;;;;;5091362;28;20483;-70
2023/11/02 11:00:13;;;;;;;2.90;2.03;;;14.20;99.90;;;;;;5107637;28;20429;-71
2023/11/02 11:02:46;;;;;;;12.73;2.23;;;14.20;99.90;;;;;;5105967;28;20534;-71
2023/11/02 11:05:15;;;;;;;6.73;2.83;;;14.30;99.90;;;;;;5118047;28;20462;-71
2023/11/02 11:08:04;;;;;;;8.13;3.03;;;14.30;99.90;;;;;;5120242;28;20445;-72
2023/11/02 11:10:40;;;;;;;6.50;2.50;;;14.30;99.90;;;;;;5119889;28;20494;-70
2023/11/02 11:13:11;;;;;;;3.20;2.27;;;14.30;99.90;;;;;;5120269;28;20464;-70
2023/11/02 11:19:00;;;;;;;2.80;1.90;;;14.30;99.90;;;;;;5098578;28;21004;-71
2023/11/02 11:21:32;;;;;;;3.77;2.40;;;14.30;99.90;;;;;;5098554;28;20473;-71
2023/11/02 11:24:32;;;;;;;3.23;2.63;;;14.40;99.90;;;;;;5098934;28;20502;-72
2023/11/02 11:27:02;;;;;;;8.27;3.03;;;14.40;99.90;;;;;;5121766;28;20428;-70
2023/11/02 11:29:45;;;;;;;3.43;2.63;;;14.50;99.90;;;;;;5120622;28;20556;-71
2023/11/02 11:35:32;;;;;;;2.90;1.77;;;14.50;99.90;;;;;;5106012;28;20955;-70
2023/11/02 11:38:01;;;;;;;3.93;1.80;;;14.50;99.90;;;;;;5119781;28;20472;-70
2023/11/02 11:40:56;;;;;;;3.43;1.80;;;14.50;99.90;;;;;;5118679;28;20468;-71
2023/11/02 11:43:23;;;;;;;3.43;1.97;;;14.50;99.90;;;;;;5117831;28;20787;-71
2023/11/02 11:45:54;;;;;;;3.73;1.80;;;14.50;99.90;;;;;;5116867;28;20436;-72
2023/11/02 11:48:51;;;;;;;4.43;1.87;;;14.50;99.90;;;;;;5116812;28;20460;-71
2023/11/02 11:51:45;;;;;;;2.50;1.77;;;14.50;99.90;;;;;;5117150;28;20803;-71
2023/11/02 11:54:15;;;;;;;2.87;1.93;;;14.50;99.90;;;;;;5117018;28;20836;-72
2023/11/02 11:57:25;;;;;;;2.77;2.00;;;14.50;99.90;;;;;;5116967;28;20453;-71
2023/11/02 12:00:18;;;;;;;2.80;1.80;;;14.60;99.90;;;;;;5116576;28;20526;-70
2023/11/02 12:02:49;;;;;;;4.03;1.67;;;14.70;99.90;;;;;;5112077;28;20433;-71
2023/11/02 12:05:55;;;;;;;1.90;1.60;;;14.70;99.90;;;;;;5117154;28;20895;-71
2023/11/02 12:08:25;;;;;;;2.63;2.33;;;14.70;99.90;;;;;;5116410;28;20816;-71
2023/11/02 12:10:59;;;;;;;2.60;2.07;;;14.70;99.90;;;;;;5116517;28;20424;-70
2023/11/02 12:13:29;;;;;;;2.33;1.90;;;14.70;99.90;;;;;;5115184;28;20434;-73
2023/11/02 12:16:01;;;;;;;3.30;2.10;;;14.70;99.90;;;;;;5116181;28;20513;-73
2023/11/02 12:18:37;;;;;;;4.20;2.63;;;14.80;99.90;;;;;;5116223;28;20484;-72
2023/11/02 12:21:11;;;;;;;2.57;2.37;;;14.70;99.90;;;;;;5116369;28;20795;-72
2023/11/02 12:23:42;;;;;;;5.53;2.30;;;14.70;99.90;;;;;;5097207;28;20448;-72
2023/11/02 12:26:11;;;;;;;3.17;2.43;;;14.70;99.90;;;;;;5115936;28;20424;-72
2023/11/02 12:28:45;;;;;;;3.23;2.27;;;14.70;99.90;;;;;;5116113;28;20962;-71
2023/11/02 12:31:33;;;;;;;2.27;2.07;;;14.70;99.90;;;;;;5116146;28;20431;-71
2023/11/02 12:34:01;;;;;;;2.97;1.97;;;14.70;99.90;;;;;;5115769;28;20901;-71
2023/11/02 12:36:53;;;;;;;9.13;2.90;;;14.60;99.90;;;;;;5115419;28;20449;-71
2023/11/02 12:39:22;;;;;;;3.90;2.30;;;14.60;99.90;;;;;;5115239;28;20493;-71
2023/11/02 12:42:04;;;;;;;4.60;2.60;;;14.60;99.90;;;;;;5115709;28;20493;-71
2023/11/02 12:44:36;;;;;;;4.27;2.47;;;14.60;99.90;;;;;;5115954;28;20456;-71
2023/11/02 12:47:39;;;;;;;3.80;2.17;;;14.60;99.90;;;;;;5115534;28;20445;-72
2023/11/02 12:50:26;;;;;;;2.57;1.90;;;14.50;99.90;;;;;;5115961;28;20464;-71
2023/11/02 12:52:55;;;;;;;2.93;2.30;;;14.50;99.90;;;;;;5115495;28;20432;-71
2023/11/02 12:55:47;;;;;;;7.80;2.23;;;14.50;99.90;;;;;;5102569;28;20434;-71
2023/11/02 12:58:19;;;;;;;3.27;2.50;;;14.50;99.90;;;;;;5095470;28;20877;-72
2023/11/02 13:01:04;;;;;;;6.00;2.60;;;14.60;99.90;;;;;;5095218;28;20821;-72
2023/11/02 13:03:32;;;;;;;3.87;2.40;;;14.60;99.90;;;;;;5096169;28;20490;-71
2023/11/02 13:05:59;;;;;;;9.53;2.57;;;14.70;99.90;;;;;;5096113;28;20437;-72
2023/11/02 13:08:40;;;;;;;4.80;2.63;;;14.70;99.90;;;;;;5095479;28;20461;-71
2023/11/02 13:11:07;;;;;;;5.30;2.53;;;14.70;99.90;;;;;;5094856;28;20422;-71
2023/11/02 13:13:56;;;;;;;3.70;2.40;;;14.70;99.90;;;;;;5095213;28;20492;-71
2023/11/02 13:16:24;;;;;;;4.83;2.90;;;14.60;99.90;;;;;;5094705;28;20784;-70
2023/11/02 13:19:11;;;;;;;5.10;2.27;;;14.60;99.90;;;;;;5094479;28;20520;-71
2023/11/02 13:21:41;;;;;;;2.30;2.10;;;14.70;99.90;;;;;;5097389;28;20580;-72
2023/11/02 13:24:19;;;;;;;6.00;2.60;;;14.60;99.90;;;;;;5111697;28;20448;-71
2023/11/02 13:27:03;;;;;;;3.00;2.40;;;14.60;99.90;;;;;;5115004;28;20470;-71
2023/11/02 13:29:32;;;;;;;4.50;3.00;;;14.60;99.90;;;;;;5097161;28;20452;-72
2023/11/02 13:32:01;;;;;;;4.40;3.37;;;14.60;99.90;;;;;;5115142;28;20482;-71
2023/11/02 13:34:36;;;;;;;4.03;2.60;;;14.60;99.90;;;;;;5115652;28;20421;-72
2023/11/02 13:37:07;;;;;;;4.30;3.77;;;14.60;99.90;;;;;;5096693;28;20436;-70
2023/11/02 13:40:10;;;;;;;6.57;4.17;;;14.60;99.90;;;;;;5115322;28;20499;-71
2023/11/02 13:42:37;;;;;;;3.60;3.30;;;14.70;99.90;;;;;;5116501;28;20424;-71
2023/11/02 13:45:09;;;;;;;7.50;3.37;;;14.70;99.90;;;;;;5117143;28;20485;-72
2023/11/02 13:47:37;;;;;;;5.80;3.47;;;14.70;99.90;;;;;;5124134;28;20484;-70
2023/11/02 13:50:06;;;;;;;6.47;4.20;;;14.80;99.90;;;;;;5132990;28;20453;-70
2023/11/02 13:53:14;;;;;;;7.43;3.60;;;14.80;99.90;;;;;;5134562;28;20429;-71
2023/11/02 13:55:42;;;;;;;4.50;3.50;;;14.80;99.90;;;;;;5134731;28;20445;-71
2023/11/02 13:58:52;;;;;;;6.00;3.73;;;14.80;99.90;;;;;;5116559;28;20468;-71
2023/11/02 14:01:22;;;;;;;3.93;3.50;;;14.80;99.90;;;;;;5116078;28;20897;-71
2023/11/02 14:04:09;;;;;;;6.00;4.03;;;14.70;99.90;;;;;;5115515;28;20433;-71
2023/11/02 14:06:37;;;;;;;5.63;3.50;;;14.70;99.90;;;;;;5115935;28;20504;-71
2023/11/02 14:09:20;;;;;;;6.00;3.30;;;14.70;99.90;;;;;;5114745;28;20488;-72
2023/11/02 14:11:47;;;;;;;2.83;2.60;;;14.70;99.90;;;;;;5115284;28;20436;-71
2023/11/02 14:14:33;;;;;;;6.43;3.70;;;14.70;99.90;;;;;;5115037;28;20432;-70
2023/11/02 14:17:02;;;;;;;4.73;2.90;;;14.70;99.90;;;;;;5115305;28;20465;-71
2023/11/02 14:19:30;;;;;;;9.50;3.00;;;14.70;99.90;;;;;;5115040;28;20480;-71
2023/11/02 14:22:26;;;;;;;4.90;3.93;;;14.70;99.90;;;;;;5114756;28;20486;-70
2023/11/02 14:24:53;;;;;;;6.27;4.80;;;14.60;99.90;;;;;;5114643;28;20505;-70